createdAt,value
2023-01-08T00:02:46.085Z,2.90
2023-01-08T00:07:49.664Z,3.53
2023-01-08T00:12:53.232Z,3.90
2023-01-08T00:17:58.111Z,3.83
2023-01-08T00:23:01.170Z,3.57
2023-01-08T00:28:04.233Z,5.00
2023-01-08T00:33:08.848Z,3.40
2023-01-08T00:38:12.508Z,3.40
2023-01-08T00:43:15.590Z,5.10
2023-01-08T00:48:20.241Z,4.70
2023-01-08T00:53:24.063Z,4.67
2023-01-08T00:58:27.130Z,4.83
2023-01-08T01:03:32.174Z,5.27
2023-01-08T01:08:35.769Z,3.80
2023-01-08T01:13:38.867Z,4.20
2023-01-08T01:18:43.457Z,4.90
2023-01-08T01:23:46.613Z,6.27
2023-01-08T01:28:50.922Z,4.80
2023-01-08T01:33:55.537Z,5.40
2023-01-08T01:38:59.169Z,5.33
2023-01-08T01:44:42.155Z,5.93
2023-01-08T01:49:54.300Z,5.30
2023-01-08T01:54:59.294Z,6.83
2023-01-08T02:00:05.670Z,5.00
2023-01-08T02:05:16.388Z,6.73
2023-01-08T02:10:26.801Z,4.50
2023-01-08T02:15:39.886Z,5.50
2023-01-08T02:20:48.574Z,5.90
2023-01-08T02:26:14.126Z,5.90
2023-01-08T02:31:18.782Z,5.10
2023-01-08T02:36:38.913Z,6.43
2023-01-08T02:41:53.774Z,5.10
2023-01-08T02:46:59.620Z,4.93
2023-01-08T02:52:06.920Z,5.10
2023-01-08T02:57:14.482Z,4.83
2023-01-08T03:02:18.347Z,6.50
2023-01-08T03:07:22.167Z,4.70
2023-01-08T03:12:36.387Z,3.93
2023-01-08T03:17:43.230Z,4.70
2023-01-08T03:22:49.869Z,3.83
2023-01-08T03:28:00.525Z,5.20
2023-01-08T03:33:05.656Z,4.27
2023-01-08T03:38:16.353Z,4.60
2023-01-08T03:43:21.033Z,4.70
2023-01-08T03:48:26.209Z,4.20
2023-01-08T03:53:29.852Z,3.97
2023-01-08T03:58:34.497Z,4.07
2023-01-08T04:03:37.716Z,3.90
2023-01-08T04:08:40.944Z,4.37
2023-01-08T04:13:45.563Z,4.13
2023-01-08T04:18:48.778Z,4.03
2023-01-08T04:23:51.844Z,3.40
2023-01-08T04:28:56.522Z,4.57
2023-01-08T04:33:59.969Z,4.07
2023-01-08T04:39:03.301Z,4.47
2023-01-08T04:44:08.009Z,4.10
2023-01-08T04:49:11.848Z,3.90
2023-01-08T04:54:15.125Z,3.70
2023-01-08T04:59:19.972Z,4.43
2023-01-08T05:04:23.158Z,3.87
2023-01-08T05:09:26.583Z,4.20
2023-01-08T05:14:31.318Z,4.47
2023-01-08T05:19:34.809Z,4.93
2023-01-08T05:24:37.897Z,4.60
2023-01-08T05:29:42.453Z,4.43
2023-01-08T05:34:46.122Z,4.80
2023-01-08T05:39:49.329Z,5.30
2023-01-08T05:44:53.800Z,4.17
2023-01-08T05:49:57.090Z,5.10
2023-01-08T05:55:00.615Z,5.17
2023-01-08T06:00:06.122Z,5.93
2023-01-08T06:05:14.903Z,6.00
2023-01-08T06:10:18.239Z,4.97
2023-01-08T06:15:22.816Z,4.53
2023-01-08T06:20:26.094Z,8.13
2023-01-08T06:25:29.945Z,4.93
2023-01-08T06:30:34.559Z,4.10
2023-01-08T06:35:37.785Z,5.60
2023-01-08T06:40:41.068Z,3.67
2023-01-08T06:45:45.709Z,6.20
2023-01-08T06:50:48.766Z,3.97
2023-01-08T06:55:56.984Z,4.20
2023-01-08T07:01:01.826Z,5.60
2023-01-08T07:06:05.478Z,4.40
2023-01-08T07:11:08.690Z,5.13
2023-01-08T07:16:15.585Z,5.00
2023-01-08T07:21:21.006Z,4.60
2023-01-08T07:26:24.285Z,4.73
2023-01-08T07:31:29.116Z,4.30
2023-01-08T07:36:32.488Z,4.03
2023-01-08T07:41:35.636Z,4.60
2023-01-08T07:46:40.515Z,4.40
2023-01-08T07:51:43.714Z,4.40
2023-01-08T07:56:47.482Z,3.67
2023-01-08T08:01:52.232Z,8.77
2023-01-08T08:06:56.307Z,5.13
2023-01-08T08:11:59.723Z,5.37
2023-01-08T08:17:04.278Z,9.53
2023-01-08T08:22:07.617Z,17.07
2023-01-08T08:27:10.746Z,6.77
2023-01-08T08:32:15.237Z,4.40
2023-01-08T08:37:18.445Z,5.10
2023-01-08T08:42:21.712Z,3.83
2023-01-08T08:47:26.358Z,3.50
2023-01-08T08:52:31.059Z,3.23
2023-01-08T08:57:34.164Z,3.23
2023-01-08T09:02:38.867Z,3.90
2023-01-08T09:07:42.111Z,3.43
2023-01-08T09:12:45.395Z,3.30
2023-01-08T09:17:55.642Z,2.17
2023-01-08T09:23:00.206Z,2.57
2023-01-08T09:28:05.284Z,2.43
2023-01-08T09:33:11.319Z,4.37
2023-01-08T09:38:14.654Z,2.73
2023-01-08T09:43:20.992Z,1.70
2023-01-08T09:48:29.196Z,3.20
2023-01-08T09:53:34.432Z,1.63
2023-01-08T09:58:40.495Z,8.10
2023-01-08T10:03:48.853Z,12.10
2023-01-08T10:08:53.199Z,15.43
2023-01-08T10:13:58.310Z,3.10
2023-01-08T10:19:04.258Z,1.50
2023-01-08T10:24:08.254Z,1.80
2023-01-08T10:29:14.736Z,1.80
2023-01-08T10:34:33.845Z,1.43
2023-01-08T10:39:37.900Z,1.30
2023-01-08T10:44:47.542Z,1.23
2023-01-08T10:49:52.353Z,1.53
2023-01-08T10:54:56.017Z,1.90
2023-01-08T10:59:59.655Z,1.07
2023-01-08T11:05:07.595Z,0.90
2023-01-08T11:10:24.126Z,0.77
2023-01-08T11:15:31.809Z,0.90
2023-01-08T11:20:36.755Z,0.70
2023-01-08T11:25:41.961Z,1.00
2023-01-08T11:30:51.253Z,0.73
2023-01-08T11:36:03.548Z,0.70
2023-01-08T11:41:22.556Z,0.90
2023-01-08T11:46:38.840Z,0.60
2023-01-08T11:51:59.937Z,0.53
2023-01-08T11:57:18.709Z,0.53
2023-01-08T12:02:32.157Z,0.73
2023-01-08T12:07:50.016Z,0.80
2023-01-08T12:13:06.935Z,0.90
2023-01-08T12:18:27.319Z,1.13
2023-01-08T12:23:46.424Z,0.90
2023-01-08T12:29:19.020Z,0.77
2023-01-08T12:34:34.270Z,0.70
2023-01-08T12:39:51.522Z,0.87
2023-01-08T12:44:58.443Z,0.57
2023-01-08T12:50:17.407Z,0.60
2023-01-08T12:55:33.997Z,0.70
2023-01-08T13:00:42.151Z,0.60
2023-01-08T13:05:45.952Z,0.60
2023-01-08T13:10:55.030Z,0.83
2023-01-08T13:16:21.281Z,1.00
2023-01-08T13:21:39.824Z,3.30
2023-01-08T13:26:44.566Z,0.90
2023-01-08T13:31:48.142Z,0.80
2023-01-08T13:36:58.680Z,0.70
2023-01-08T13:42:15.255Z,0.80
2023-01-08T13:47:23.763Z,0.90
2023-01-08T13:52:32.852Z,0.90
2023-01-08T13:57:41.922Z,1.23
2023-01-08T14:02:50.478Z,0.90
2023-01-08T14:07:54.402Z,1.17
2023-01-08T14:13:07.355Z,0.63
2023-01-08T14:18:13.365Z,0.70
2023-01-08T14:23:23.264Z,1.93
2023-01-08T14:28:27.940Z,1.30
2023-01-08T14:33:34.627Z,1.00
2023-01-08T14:38:37.856Z,1.00
2023-01-08T14:43:45.551Z,0.80
2023-01-08T14:48:49.817Z,0.97
2023-01-08T14:53:55.541Z,0.47
2023-01-08T14:59:01.394Z,0.67
2023-01-08T15:04:14.701Z,0.70
2023-01-08T15:09:23.071Z,0.73
2023-01-08T15:14:30.949Z,0.50
2023-01-08T15:19:40.801Z,0.30
2023-01-08T15:24:44.823Z,0.60
2023-01-08T15:29:51.860Z,0.90
2023-01-08T15:34:55.023Z,0.53
2023-01-08T15:39:58.366Z,0.60
2023-01-08T15:45:03.179Z,0.80
2023-01-08T15:50:07.641Z,0.93
2023-01-08T15:55:17.253Z,1.70
2023-01-08T16:00:22.965Z,0.60
2023-01-08T16:05:27.448Z,0.77
2023-01-08T16:10:30.765Z,0.60
2023-01-08T16:15:35.521Z,0.80
2023-01-08T16:20:40.366Z,1.23
2023-01-08T16:25:43.622Z,1.17
2023-01-08T16:30:48.204Z,0.87
2023-01-08T16:35:58.143Z,0.80
2023-01-08T16:41:01.928Z,1.30
2023-01-08T16:46:13.719Z,0.70
2023-01-08T16:51:16.987Z,0.70
2023-01-08T16:56:20.518Z,1.80
2023-01-08T17:01:25.087Z,0.83
2023-01-08T17:06:28.438Z,0.97
2023-01-08T17:11:32.281Z,1.20
2023-01-08T17:16:37.078Z,0.83
2023-01-08T17:21:40.769Z,1.80
2023-01-08T17:26:44.105Z,1.27
2023-01-08T17:31:48.875Z,1.10
2023-01-08T17:36:52.302Z,1.03
2023-01-08T17:42:12.819Z,1.00
2023-01-08T17:47:19.731Z,0.90
2023-01-08T17:52:23.993Z,1.10
2023-01-08T17:57:31.476Z,1.40
2023-01-08T18:02:36.345Z,1.10
2023-01-08T18:07:39.809Z,1.30
2023-01-08T18:12:42.881Z,0.67
2023-01-08T18:17:48.274Z,1.07
2023-01-08T18:22:51.529Z,0.97
2023-01-08T18:27:55.792Z,1.07
2023-01-08T18:33:00.238Z,0.90
2023-01-08T18:38:03.385Z,1.20
2023-01-08T18:43:07.318Z,1.13
2023-01-08T18:48:11.836Z,1.30
2023-01-08T18:53:14.971Z,1.00
2023-01-08T18:58:18.088Z,0.80
2023-01-08T19:03:22.926Z,1.07
2023-01-08T19:08:26.145Z,1.00
2023-01-08T19:13:29.238Z,1.00
2023-01-08T19:18:34.223Z,2.43
2023-01-08T19:23:37.887Z,1.47
2023-01-08T19:28:41.435Z,1.10
2023-01-08T19:33:47.196Z,1.60
2023-01-08T19:38:50.520Z,0.83
2023-01-08T19:43:54.098Z,0.80
2023-01-08T19:49:01.027Z,0.70
2023-01-08T19:54:06.980Z,1.80
2023-01-08T19:59:12.660Z,0.60
2023-01-08T20:04:18.087Z,0.90
2023-01-08T20:09:22.759Z,1.60
2023-01-08T20:14:26.277Z,1.60
2023-01-08T20:19:31.196Z,2.30
2023-01-08T20:24:34.340Z,2.10
2023-01-08T20:29:37.701Z,1.83
2023-01-08T20:34:42.263Z,1.20
2023-01-08T20:39:46.250Z,5.23
2023-01-08T20:44:49.444Z,1.70
2023-01-08T20:49:57.185Z,4.80
2023-01-08T20:55:02.012Z,1.23
2023-01-08T21:00:06.371Z,1.80
2023-01-08T21:05:11.319Z,0.87
2023-01-08T21:10:15.068Z,1.00
2023-01-08T21:15:21.836Z,0.90
2023-01-08T21:20:26.997Z,1.43
2023-01-08T21:25:33.375Z,1.17
2023-01-08T21:30:36.724Z,1.23
2023-01-08T21:35:41.326Z,1.17
2023-01-08T21:40:45.963Z,0.97
2023-01-08T21:45:52.228Z,0.93
2023-01-08T21:50:57.141Z,0.80
2023-01-08T21:56:01.177Z,0.80
2023-01-08T22:01:10.126Z,1.87
2023-01-08T22:06:14.849Z,1.50
2023-01-08T22:11:17.923Z,1.43
2023-01-08T22:16:21.575Z,1.50
2023-01-08T22:21:26.341Z,1.90
2023-01-08T22:26:29.602Z,1.60
2023-01-08T22:31:33.157Z,1.60
2023-01-08T22:36:37.703Z,2.53
2023-01-08T22:41:42.377Z,2.80
2023-01-08T22:46:46.621Z,4.70
2023-01-08T22:51:52.680Z,3.07
2023-01-08T22:56:55.824Z,2.73
2023-01-08T23:01:59.263Z,4.23
2023-01-08T23:07:04.130Z,4.00
2023-01-08T23:12:07.714Z,4.20
2023-01-08T23:17:10.918Z,3.70
2023-01-08T23:22:15.699Z,3.40
2023-01-08T23:27:18.920Z,3.60
2023-01-08T23:32:22.159Z,3.50
2023-01-08T23:37:26.612Z,3.10
2023-01-08T23:42:30.061Z,3.40
2023-01-08T23:47:33.251Z,5.33
2023-01-08T23:52:37.732Z,2.60
2023-01-08T23:57:40.943Z,2.70
